createdAt,value
2022-12-06T00:00:14.828Z,83.50
2022-12-06T00:02:46.565Z,84.62
2022-12-06T00:05:17.821Z,79.15
2022-12-06T00:07:49.636Z,84.03
2022-12-06T00:10:20.068Z,82.05
2022-12-06T00:12:50.344Z,85.57
2022-12-06T00:15:20.498Z,82.42
2022-12-06T00:17:50.749Z,86.82
2022-12-06T00:20:20.971Z,80.17
2022-12-06T00:22:51.403Z,78.40
2022-12-06T00:25:21.640Z,80.62
2022-12-06T00:27:52.997Z,85.55
2022-12-06T00:30:23.140Z,80.40
2022-12-06T00:32:53.300Z,79.65
2022-12-06T00:35:23.450Z,82.30
2022-12-06T00:37:53.662Z,88.72
2022-12-06T00:40:24.971Z,97.47
2022-12-06T00:42:55.152Z,93.42
2022-12-06T00:45:25.365Z,90.25
2022-12-06T00:47:55.543Z,90.38
2022-12-06T00:50:26.767Z,87.08
2022-12-06T00:52:58.023Z,84.75
2022-12-06T00:55:28.194Z,89.67
2022-12-06T00:57:58.502Z,83.87
2022-12-06T01:00:28.673Z,89.10
2022-12-06T01:03:00.021Z,86.92
2022-12-06T01:05:30.696Z,91.63
2022-12-06T01:08:01.366Z,85.80
2022-12-06T01:10:31.512Z,86.37
2022-12-06T01:13:01.650Z,92.37
2022-12-06T01:15:32.289Z,86.85
2022-12-06T01:18:02.613Z,87.72
2022-12-06T01:20:32.913Z,88.87
2022-12-06T01:23:03.162Z,83.50
2022-12-06T01:25:36.477Z,94.05
2022-12-06T01:28:07.799Z,99.62
2022-12-06T01:30:41.045Z,106.63
2022-12-06T01:33:11.374Z,100.72
2022-12-06T01:35:43.112Z,104.87
2022-12-06T01:38:13.559Z,95.57
2022-12-06T01:40:49.506Z,94.55
2022-12-06T01:43:43.680Z,91.97
2022-12-06T01:46:32.389Z,97.92
2022-12-06T01:49:14.127Z,93.37
2022-12-06T01:51:47.467Z,92.85
2022-12-06T01:54:20.409Z,88.85
2022-12-06T01:56:52.402Z,91.92
2022-12-06T01:59:24.826Z,96.42
2022-12-06T02:01:56.115Z,103.45
2022-12-06T02:04:28.128Z,93.97
2022-12-06T02:07:00.459Z,95.03
2022-12-06T02:09:32.097Z,96.55
2022-12-06T02:12:02.400Z,93.87
2022-12-06T02:14:35.676Z,95.70
2022-12-06T02:17:20.671Z,94.22
2022-12-06T02:20:11.770Z,96.73
2022-12-06T02:23:07.729Z,89.87
2022-12-06T02:25:50.072Z,91.85
2022-12-06T02:28:35.720Z,86.08
2022-12-06T02:31:20.337Z,88.45
2022-12-06T02:36:45.848Z,90.67
2022-12-06T02:39:37.690Z,89.25
2022-12-06T02:42:12.615Z,89.77
2022-12-06T02:44:48.620Z,88.95
2022-12-06T02:47:26.962Z,92.37
2022-12-06T02:50:02.345Z,90.42
2022-12-06T02:52:36.363Z,89.10
2022-12-06T02:55:10.356Z,89.65
2022-12-06T02:57:53.272Z,92.45
2022-12-06T03:00:31.689Z,92.42
2022-12-06T03:03:32.643Z,94.22
2022-12-06T03:06:09.336Z,90.60
2022-12-06T03:09:09.601Z,89.77
2022-12-06T03:12:12.360Z,91.15
2022-12-06T03:14:51.734Z,95.57
2022-12-06T03:17:41.606Z,90.70
2022-12-06T03:20:17.242Z,89.17
2022-12-06T03:22:55.568Z,94.00
2022-12-06T03:25:30.313Z,87.70
2022-12-06T03:28:04.518Z,91.97
2022-12-06T03:30:40.941Z,85.32
2022-12-06T03:33:17.049Z,82.90
2022-12-06T03:35:52.562Z,85.10
2022-12-06T03:38:40.505Z,94.00
2022-12-06T03:41:14.112Z,89.75
2022-12-06T03:43:46.571Z,86.35
2022-12-06T03:46:21.942Z,87.75
2022-12-06T03:48:56.173Z,88.25
2022-12-06T03:51:30.010Z,88.25
2022-12-06T03:54:03.702Z,88.25
2022-12-06T03:56:37.630Z,85.22
2022-12-06T03:59:11.835Z,89.75
2022-12-06T04:01:50.066Z,83.82
2022-12-06T04:04:26.385Z,89.47
2022-12-06T04:06:58.147Z,83.70
2022-12-06T04:09:47.113Z,86.67
2022-12-06T04:12:39.289Z,79.75
2022-12-06T04:15:11.697Z,76.82
2022-12-06T04:18:03.761Z,79.27
2022-12-06T04:20:37.567Z,83.75
2022-12-06T04:25:48.498Z,85.87
2022-12-06T04:28:54.156Z,87.20
2022-12-06T04:31:43.937Z,84.45
2022-12-06T04:34:33.675Z,82.42
2022-12-06T04:37:23.079Z,85.38
2022-12-06T04:40:00.285Z,87.33
2022-12-06T04:42:52.301Z,87.25
2022-12-06T04:45:24.574Z,82.37
2022-12-06T04:47:59.934Z,85.57
2022-12-06T04:50:33.175Z,85.90
2022-12-06T04:53:07.981Z,85.43
2022-12-06T04:55:40.841Z,82.15
2022-12-06T04:58:14.447Z,84.55
2022-12-06T05:00:48.925Z,83.62
2022-12-06T05:03:21.663Z,78.17
2022-12-06T05:05:54.784Z,83.45
2022-12-06T05:08:28.376Z,82.82
2022-12-06T05:11:02.235Z,86.05
2022-12-06T05:13:37.015Z,84.72
2022-12-06T05:16:11.593Z,88.93
2022-12-06T05:18:46.464Z,86.17
2022-12-06T05:21:21.466Z,87.12
2022-12-06T05:23:56.897Z,88.22
2022-12-06T05:26:29.591Z,87.97
2022-12-06T05:29:02.341Z,98.60
2022-12-06T05:31:53.351Z,93.20
2022-12-06T05:34:25.642Z,98.00
2022-12-06T05:37:00.886Z,100.75
2022-12-06T05:39:34.233Z,97.25
2022-12-06T05:42:06.917Z,94.17
2022-12-06T05:44:44.463Z,103.58
2022-12-06T05:47:19.436Z,101.00
2022-12-06T05:49:54.972Z,94.32
2022-12-06T05:52:27.856Z,89.40
2022-12-06T05:55:00.877Z,96.75
2022-12-06T05:57:32.062Z,89.95
2022-12-06T06:00:04.476Z,88.03
2022-12-06T06:02:42.043Z,89.95
2022-12-06T06:05:26.119Z,89.80
2022-12-06T06:08:04.899Z,93.60
2022-12-06T06:10:41.253Z,87.47
2022-12-06T06:13:14.867Z,94.77
2022-12-06T06:15:49.262Z,81.32
2022-12-06T06:18:24.485Z,90.90
2022-12-06T06:20:58.745Z,94.13
2022-12-06T06:23:32.871Z,93.80
2022-12-06T06:26:11.505Z,93.45
2022-12-06T06:28:43.916Z,88.75
2022-12-06T06:31:17.442Z,92.17
2022-12-06T06:33:51.112Z,86.90
2022-12-06T06:36:30.319Z,79.72
2022-12-06T06:39:02.363Z,80.00
2022-12-06T06:41:34.008Z,80.10
2022-12-06T06:44:06.321Z,82.10
2022-12-06T06:46:40.913Z,77.60
2022-12-06T06:49:13.890Z,78.92
2022-12-06T06:51:50.896Z,80.32
2022-12-06T06:54:26.364Z,77.95
2022-12-06T06:57:03.826Z,77.12
2022-12-06T06:59:37.427Z,78.80
2022-12-06T07:02:17.435Z,83.60
2022-12-06T07:10:38.770Z,78.28
2022-12-06T07:13:10.542Z,85.57
2022-12-06T07:15:44.256Z,80.62
2022-12-06T07:18:18.557Z,78.30
2022-12-06T07:20:52.125Z,82.12
2022-12-06T07:23:26.544Z,75.75
2022-12-06T07:26:13.921Z,78.70
2022-12-06T07:28:47.696Z,77.58
2022-12-06T07:31:22.301Z,75.90
2022-12-06T07:33:57.339Z,82.75
2022-12-06T07:36:32.670Z,73.65
2022-12-06T07:39:14.314Z,72.92
2022-12-06T07:42:01.080Z,79.72
2022-12-06T07:44:55.575Z,77.05
2022-12-06T07:47:26.833Z,80.07
2022-12-06T07:50:04.160Z,78.02
2022-12-06T07:52:37.683Z,79.20
2022-12-06T07:55:13.344Z,75.83
2022-12-06T07:57:50.048Z,79.15
2022-12-06T08:00:24.872Z,75.08
2022-12-06T08:02:58.579Z,76.57
2022-12-06T08:05:33.214Z,77.62
2022-12-06T08:08:05.688Z,75.67
2022-12-06T08:10:37.282Z,77.45
2022-12-06T08:13:09.524Z,79.22
2022-12-06T08:15:46.133Z,77.47
2022-12-06T08:18:23.168Z,72.92
2022-12-06T08:20:55.022Z,78.78
2022-12-06T08:23:33.851Z,77.97
2022-12-06T08:26:09.949Z,72.47
2022-12-06T08:28:42.778Z,74.20
2022-12-06T08:31:19.275Z,67.30
2022-12-06T08:33:54.983Z,75.20
2022-12-06T08:39:20.175Z,75.67
2022-12-06T08:45:02.118Z,76.67
2022-12-06T08:47:35.057Z,71.82
2022-12-06T08:50:10.001Z,72.30
2022-12-06T08:52:41.535Z,77.12
2022-12-06T08:55:15.481Z,71.10
2022-12-06T08:57:48.068Z,73.80
2022-12-06T09:00:21.674Z,80.95
2022-12-06T09:02:56.981Z,73.78
2022-12-06T09:05:30.797Z,78.50
2022-12-06T09:08:01.912Z,78.28
2022-12-06T09:10:34.606Z,73.28
2022-12-06T09:13:06.255Z,74.45
2022-12-06T09:15:41.988Z,75.37
2022-12-06T09:21:11.224Z,74.53
2022-12-06T09:23:46.773Z,75.08
2022-12-06T09:26:20.862Z,70.50
2022-12-06T09:28:59.657Z,75.28
2022-12-06T09:31:31.561Z,71.87
2022-12-06T09:34:04.368Z,71.07
2022-12-06T09:36:38.889Z,75.03
2022-12-06T09:39:35.787Z,68.33
2022-12-06T09:42:19.169Z,64.80
2022-12-06T09:47:53.203Z,66.87
2022-12-06T09:50:38.272Z,68.72
2022-12-06T09:53:26.078Z,66.77
2022-12-06T09:56:28.739Z,66.33
2022-12-06T09:59:24.212Z,66.28
2022-12-06T10:02:28.578Z,62.08
2022-12-06T10:05:17.857Z,59.23
2022-12-06T10:08:22.313Z,68.07
2022-12-06T10:11:19.008Z,62.55
2022-12-06T10:14:06.765Z,61.83
2022-12-06T10:16:55.363Z,60.88
2022-12-06T10:19:45.142Z,63.00
2022-12-06T10:22:33.725Z,65.00
2022-12-06T10:25:15.544Z,61.73
2022-12-06T10:28:11.515Z,61.18
2022-12-06T10:30:57.362Z,62.85
2022-12-06T10:33:47.366Z,65.20
2022-12-06T10:36:41.124Z,56.73
2022-12-06T10:39:33.927Z,59.38
2022-12-06T10:42:08.912Z,58.20
2022-12-06T10:44:46.892Z,58.92
2022-12-06T10:47:23.493Z,62.20
2022-12-06T10:50:08.198Z,60.80
2022-12-06T10:55:18.070Z,61.25
2022-12-06T10:57:57.835Z,57.88
2022-12-06T11:00:35.775Z,61.73
2022-12-06T11:03:18.173Z,61.08
2022-12-06T11:05:58.687Z,65.40
2022-12-06T11:08:44.987Z,65.65
2022-12-06T11:11:20.647Z,62.60
2022-12-06T11:13:56.391Z,65.95
2022-12-06T11:16:34.148Z,63.98
2022-12-06T11:19:29.565Z,64.58
2022-12-06T11:22:16.287Z,66.05
2022-12-06T11:27:47.512Z,60.20
2022-12-06T11:30:20.993Z,59.00
2022-12-06T11:32:53.658Z,59.90
2022-12-06T11:35:27.001Z,59.35
2022-12-06T11:38:00.360Z,60.10
2022-12-06T11:40:36.833Z,62.05
2022-12-06T11:43:09.898Z,63.80
2022-12-06T11:45:43.637Z,63.63
2022-12-06T11:48:22.938Z,59.73
2022-12-06T11:50:55.037Z,60.58
2022-12-06T11:53:28.577Z,55.70
2022-12-06T11:56:01.854Z,58.13
2022-12-06T11:58:41.309Z,60.73
2022-12-06T12:01:14.715Z,56.15
2022-12-06T12:03:48.440Z,62.20
2022-12-06T12:06:24.639Z,59.10
2022-12-06T12:09:09.539Z,59.33
2022-12-06T12:14:22.067Z,57.83
2022-12-06T12:16:56.623Z,53.68
2022-12-06T12:19:35.826Z,52.50
2022-12-06T12:22:36.629Z,50.33
2022-12-06T12:25:28.345Z,53.87
2022-12-06T12:28:05.032Z,51.58
2022-12-06T12:30:40.094Z,49.93
2022-12-06T12:33:16.898Z,46.68
2022-12-06T12:35:53.545Z,47.03
2022-12-06T12:38:32.895Z,53.15
2022-12-06T12:41:07.785Z,48.05
2022-12-06T12:43:38.306Z,46.98
2022-12-06T12:46:20.972Z,50.65
2022-12-06T12:48:52.577Z,53.20
2022-12-06T12:51:31.808Z,57.73
2022-12-06T12:54:22.225Z,51.25
2022-12-06T12:56:53.449Z,56.40
2022-12-06T12:59:27.664Z,60.43
2022-12-06T13:02:23.862Z,60.35
2022-12-06T13:05:17.400Z,53.98
2022-12-06T13:07:33.088Z,58.05
2022-12-06T13:10:14.933Z,58.05
2022-12-06T13:12:51.191Z,53.65
2022-12-06T13:15:47.550Z,54.50
2022-12-06T13:18:30.115Z,54.13
2022-12-06T13:21:04.682Z,52.43
2022-12-06T13:23:38.790Z,56.17
2022-12-06T13:26:30.125Z,51.45
2022-12-06T13:29:03.509Z,52.90
2022-12-06T13:31:38.462Z,52.98
2022-12-06T13:34:23.807Z,54.65
2022-12-06T13:36:54.246Z,53.30
2022-12-06T13:39:33.439Z,53.23
2022-12-06T13:42:19.008Z,51.60
2022-12-06T13:44:55.563Z,53.20
2022-12-06T13:47:32.033Z,52.15
2022-12-06T13:50:05.521Z,49.48
2022-12-06T13:52:48.282Z,48.45
2022-12-06T13:55:30.735Z,50.92
2022-12-06T13:58:07.128Z,50.90
2022-12-06T14:00:46.399Z,49.90
2022-12-06T14:03:20.965Z,55.83
2022-12-06T14:06:15.716Z,54.63
2022-12-06T14:08:56.568Z,54.55
2022-12-06T14:11:29.467Z,59.03
2022-12-06T14:14:03.131Z,59.10
2022-12-06T14:16:46.677Z,53.83
2022-12-06T14:19:23.848Z,54.75
2022-12-06T14:21:57.300Z,60.25
2022-12-06T14:24:33.260Z,53.80
2022-12-06T14:27:18.941Z,53.10
2022-12-06T14:30:30.564Z,53.38
2022-12-06T14:32:55.441Z,57.83
2022-12-06T14:35:40.222Z,53.10
2022-12-06T14:38:31.456Z,56.05
2022-12-06T14:41:22.941Z,56.68
2022-12-06T14:43:57.253Z,55.17
2022-12-06T14:46:50.790Z,55.90
2022-12-06T14:49:43.685Z,54.38
2022-12-06T14:52:24.104Z,56.50
2022-12-06T14:55:00.201Z,54.75
2022-12-06T14:57:40.925Z,53.87
2022-12-06T15:00:27.484Z,58.75
2022-12-06T15:03:13.305Z,67.80
2022-12-06T15:05:49.032Z,60.85
2022-12-06T15:08:32.617Z,57.65
2022-12-06T15:11:18.450Z,55.45
2022-12-06T15:13:54.603Z,53.45
2022-12-06T15:16:26.924Z,47.50
2022-12-06T15:19:04.278Z,48.60
2022-12-06T15:21:36.303Z,44.70
2022-12-06T15:24:20.030Z,45.70
2022-12-06T15:26:54.621Z,44.58
2022-12-06T15:29:29.329Z,44.33
2022-12-06T15:32:00.752Z,45.23
2022-12-06T15:34:36.261Z,44.05
2022-12-06T15:39:55.155Z,50.55
2022-12-06T15:42:36.484Z,48.42
2022-12-06T15:45:13.839Z,49.05
2022-12-06T15:47:48.512Z,49.80
2022-12-06T15:50:22.362Z,46.48
2022-12-06T15:52:57.046Z,45.60
2022-12-06T15:55:28.520Z,51.37
2022-12-06T15:58:02.199Z,47.65
2022-12-06T16:00:34.905Z,47.05
2022-12-06T16:03:10.014Z,47.27
2022-12-06T16:05:44.858Z,46.18
2022-12-06T16:08:17.673Z,45.98
2022-12-06T16:11:15.538Z,46.92
2022-12-06T16:13:34.274Z,45.33
2022-12-06T16:16:07.105Z,46.80
2022-12-06T16:18:39.112Z,45.00
2022-12-06T16:21:12.003Z,49.77
2022-12-06T16:24:14.870Z,51.45
2022-12-06T16:26:47.989Z,52.93
2022-12-06T16:29:27.238Z,46.98
2022-12-06T16:31:58.734Z,49.65
2022-12-06T16:34:31.468Z,48.58
2022-12-06T16:39:41.175Z,45.30
2022-12-06T16:42:12.099Z,48.35
2022-12-06T16:44:45.815Z,53.70
2022-12-06T16:47:18.162Z,57.25
2022-12-06T16:49:53.213Z,53.05
2022-12-06T16:52:26.409Z,57.58
2022-12-06T16:55:01.858Z,50.35
2022-12-06T16:57:34.646Z,48.65
2022-12-06T17:00:10.398Z,50.23
2022-12-06T17:02:46.299Z,49.30
2022-12-06T17:05:24.248Z,48.30
2022-12-06T17:07:57.462Z,40.25
2022-12-06T17:10:48.781Z,42.78
2022-12-06T17:13:26.264Z,43.08
2022-12-06T17:16:00.926Z,42.13
2022-12-06T17:18:35.457Z,38.90
2022-12-06T17:21:14.368Z,39.33
2022-12-06T17:23:43.945Z,36.85
2022-12-06T17:26:15.813Z,37.98
2022-12-06T17:28:47.671Z,36.80
2022-12-06T17:31:20.582Z,38.20
2022-12-06T17:33:53.797Z,35.03
2022-12-06T17:36:27.425Z,35.55
2022-12-06T17:39:00.404Z,36.85
2022-12-06T17:41:52.094Z,34.13
2022-12-06T17:44:25.978Z,34.45
2022-12-06T17:47:00.047Z,35.20
2022-12-06T17:49:32.701Z,31.20
2022-12-06T17:52:05.415Z,30.00
2022-12-06T17:54:37.370Z,29.92
2022-12-06T17:57:12.068Z,31.73
2022-12-06T17:59:42.967Z,32.28
2022-12-06T18:02:19.222Z,32.65
2022-12-06T18:04:56.090Z,37.25
2022-12-06T18:07:27.214Z,40.88
2022-12-06T18:10:00.555Z,37.80
2022-12-06T18:12:31.983Z,39.35
2022-12-06T18:15:09.867Z,36.65
2022-12-06T18:17:44.185Z,36.03
2022-12-06T18:20:16.793Z,33.40
2022-12-06T18:22:50.594Z,32.17
2022-12-06T18:25:22.846Z,33.65
2022-12-06T18:27:57.117Z,30.85
2022-12-06T18:30:35.265Z,34.43
2022-12-06T18:33:06.520Z,31.35
2022-12-06T18:35:38.896Z,28.45
2022-12-06T18:38:10.790Z,31.23
2022-12-06T18:40:43.747Z,30.75
2022-12-06T18:43:15.826Z,28.30
2022-12-06T18:45:48.801Z,26.85
2022-12-06T18:48:22.532Z,22.40
2022-12-06T18:50:55.801Z,33.13
2022-12-06T18:53:32.159Z,25.70
2022-12-06T18:56:12.031Z,27.37
2022-12-06T18:58:46.384Z,26.57
2022-12-06T19:01:21.221Z,26.05
2022-12-06T19:03:56.527Z,26.33
2022-12-06T19:06:33.545Z,26.73
2022-12-06T19:09:08.104Z,24.72
2022-12-06T19:11:42.635Z,21.68
2022-12-06T19:14:15.397Z,24.67
2022-12-06T19:16:51.797Z,23.87
2022-12-06T19:19:26.117Z,21.97
2022-12-06T19:21:58.434Z,23.85
2022-12-06T19:24:38.385Z,20.68
2022-12-06T19:27:10.086Z,20.75
2022-12-06T19:29:46.396Z,19.85
2022-12-06T19:32:21.284Z,20.62
2022-12-06T19:35:13.575Z,20.25
2022-12-06T19:37:45.619Z,21.12
2022-12-06T19:40:20.159Z,22.13
2022-12-06T19:43:10.718Z,20.45
2022-12-06T19:45:41.221Z,23.40
2022-12-06T19:48:13.006Z,22.20
2022-12-06T19:50:49.372Z,19.70
2022-12-06T19:53:21.645Z,24.35
2022-12-06T19:55:54.271Z,21.80
2022-12-06T19:58:25.992Z,23.20
2022-12-06T20:00:59.158Z,20.72
2022-12-06T20:03:31.290Z,22.27
2022-12-06T20:06:07.712Z,24.23
2022-12-06T20:08:40.106Z,24.52
2022-12-06T20:11:16.460Z,22.50
2022-12-06T20:13:48.149Z,20.20
2022-12-06T20:16:22.922Z,21.90
2022-12-06T20:18:59.485Z,22.52
2022-12-06T20:21:32.221Z,20.60
2022-12-06T20:24:06.198Z,20.60
2022-12-06T20:26:39.539Z,20.52
2022-12-06T20:29:12.184Z,19.30
2022-12-06T20:31:44.818Z,18.00
2022-12-06T20:34:17.842Z,19.57
2022-12-06T20:36:48.812Z,18.00
2022-12-06T20:39:27.106Z,18.57
2022-12-06T20:41:59.672Z,17.55
2022-12-06T20:44:32.881Z,16.12
2022-12-06T20:47:05.779Z,15.78
2022-12-06T20:49:46.074Z,17.07
2022-12-06T20:52:17.676Z,16.93
2022-12-06T20:55:09.281Z,19.05
2022-12-06T20:57:43.997Z,18.90
2022-12-06T21:00:15.546Z,16.00
2022-12-06T21:02:47.598Z,14.33
2022-12-06T21:05:20.645Z,15.98
2022-12-06T21:07:53.576Z,13.53
2022-12-06T21:10:26.308Z,14.35
2022-12-06T21:13:02.759Z,13.90
2022-12-06T21:15:31.844Z,15.25
2022-12-06T21:18:17.346Z,14.53
2022-12-06T21:20:52.005Z,14.50
2022-12-06T21:23:25.732Z,13.03
2022-12-06T21:26:07.887Z,13.48
2022-12-06T21:28:39.640Z,13.70
2022-12-06T21:31:12.553Z,12.85
2022-12-06T21:36:20.883Z,11.55
2022-12-06T21:38:54.364Z,12.60
2022-12-06T21:41:28.220Z,12.70
2022-12-06T21:44:13.879Z,13.22
2022-12-06T21:46:47.696Z,13.22
2022-12-06T21:52:03.146Z,12.78
2022-12-06T21:54:33.430Z,11.57
2022-12-06T21:57:05.068Z,12.43
2022-12-06T21:59:37.675Z,13.43
2022-12-06T22:02:14.037Z,12.57
2022-12-06T22:04:46.009Z,11.33
2022-12-06T22:07:19.458Z,11.68
2022-12-06T22:09:55.620Z,11.93
2022-12-06T22:12:37.661Z,10.70
2022-12-06T22:15:10.544Z,9.40
2022-12-06T22:17:43.956Z,10.28
2022-12-06T22:20:18.959Z,11.50
2022-12-06T22:22:55.453Z,10.63
2022-12-06T22:25:29.930Z,9.98
2022-12-06T22:28:01.276Z,8.90
2022-12-06T22:30:34.783Z,9.40
2022-12-06T22:33:07.107Z,11.33
2022-12-06T22:35:42.237Z,9.83
2022-12-06T22:38:16.965Z,10.10
2022-12-06T22:40:52.051Z,9.63
2022-12-06T22:43:26.645Z,9.48
2022-12-06T22:46:00.531Z,9.98
2022-12-06T22:48:36.037Z,9.75
2022-12-06T22:51:17.935Z,9.05
2022-12-06T22:53:52.401Z,8.33
2022-12-06T22:56:24.939Z,8.25
2022-12-06T22:59:02.265Z,7.25
2022-12-06T23:01:36.442Z,7.22
2022-12-06T23:04:13.569Z,8.03
2022-12-06T23:06:46.694Z,7.55
2022-12-06T23:09:21.030Z,7.37
2022-12-06T23:11:54.343Z,8.20
2022-12-06T23:14:37.812Z,7.78
2022-12-06T23:17:10.753Z,6.03
2022-12-06T23:19:44.302Z,6.40
2022-12-06T23:22:16.338Z,6.83
2022-12-06T23:24:52.331Z,5.85
2022-12-06T23:27:26.882Z,5.25
2022-12-06T23:30:17.397Z,6.00
2022-12-06T23:32:49.780Z,5.67
2022-12-06T23:35:23.109Z,6.10
2022-12-06T23:37:54.484Z,5.58
2022-12-06T23:40:24.824Z,6.42
2022-12-06T23:42:55.102Z,6.33
2022-12-06T23:45:25.380Z,6.30
2022-12-06T23:47:57.417Z,6.00
2022-12-06T23:50:27.655Z,6.55
2022-12-06T23:52:57.944Z,6.60
2022-12-06T23:55:28.353Z,7.10
2022-12-06T23:57:58.617Z,7.30
